sensor_id;sensor_type;location;lat;lon;timestamp;P1;durP1;ratioP1;P2;durP2;ratioP2
2622;SDS011;1321;48.690;9.022;2023-09-12T00:00:53;20.90;;;19.37;;
2622;SDS011;1321;48.690;9.022;2023-09-12T00:03:22;20.73;;;19.43;;
2622;SDS011;1321;48.690;9.022;2023-09-12T00:05:51;20.00;;;18.50;;
2622;SDS011;1321;48.690;9.022;2023-09-12T00:08:20;20.57;;;19.10;;
2622;SDS011;1321;48.690;9.022;2023-09-12T00:10:57;22.33;;;20.63;;
2622;SDS011;1321;48.690;9.022;2023-09-12T00:13:27;20.67;;;19.23;;
2622;SDS011;1321;48.690;9.022;2023-09-12T00:15:55;21.17;;;19.50;;
2622;SDS011;1321;48.690;9.022;2023-09-12T00:18:25;21.70;;;20.30;;
2622;SDS011;1321;48.690;9.022;2023-09-12T00:20:53;21.23;;;20.00;;
2622;SDS011;1321;48.690;9.022;2023-09-12T00:23:22;20.50;;;19.40;;
2622;SDS011;1321;48.690;9.022;2023-09-12T00:25:50;21.07;;;19.70;;
2622;SDS011;1321;48.690;9.022;2023-09-12T00:28:19;21.53;;;20.13;;
2622;SDS011;1321;48.690;9.022;2023-09-12T00:30:47;21.37;;;19.67;;
2622;SDS011;1321;48.690;9.022;2023-09-12T00:33:16;21.27;;;20.13;;
2622;SDS011;1321;48.690;9.022;2023-09-12T00:35:46;21.37;;;20.27;;
2622;SDS011;1321;48.690;9.022;2023-09-12T00:38:14;20.00;;;18.83;;
2622;SDS011;1321;48.690;9.022;2023-09-12T00:40:42;20.77;;;19.43;;
2622;SDS011;1321;48.690;9.022;2023-09-12T00:43:10;21.93;;;20.33;;
2622;SDS011;1321;48.690;9.022;2023-09-12T00:45:38;21.23;;;19.83;;
2622;SDS011;1321;48.690;9.022;2023-09-12T00:48:06;21.77;;;20.17;;
2622;SDS011;1321;48.690;9.022;2023-09-12T00:50:36;20.07;;;18.87;;
2622;SDS011;1321;48.690;9.022;2023-09-12T00:53:06;21.60;;;20.30;;
2622;SDS011;1321;48.690;9.022;2023-09-12T00:55:35;21.30;;;20.00;;
2622;SDS011;1321;48.690;9.022;2023-09-12T00:58:08;21.40;;;19.77;;
2622;SDS011;1321;48.690;9.022;2023-09-12T01:00:36;21.00;;;19.40;;
2622;SDS011;1321;48.690;9.022;2023-09-12T01:03:04;20.30;;;19.10;;
2622;SDS011;1321;48.690;9.022;2023-09-12T01:05:32;20.77;;;19.47;;
2622;SDS011;1321;48.690;9.022;2023-09-12T01:08:01;20.33;;;19.10;;
2622;SDS011;1321;48.690;9.022;2023-09-12T01:10:31;19.33;;;18.23;;
2622;SDS011;1321;48.690;9.022;2023-09-12T01:12:59;20.23;;;18.93;;
2622;SDS011;1321;48.690;9.022;2023-09-12T01:15:27;20.63;;;19.27;;
2622;SDS011;1321;48.690;9.022;2023-09-12T01:17:56;21.47;;;20.10;;
2622;SDS011;1321;48.690;9.022;2023-09-12T01:20:25;20.70;;;19.60;;
2622;SDS011;1321;48.690;9.022;2023-09-12T01:23:00;21.20;;;20.00;;
2622;SDS011;1321;48.690;9.022;2023-09-12T01:28:54;20.60;;;19.30;;
2622;SDS011;1321;48.690;9.022;2023-09-12T01:31:24;22.33;;;20.37;;
2622;SDS011;1321;48.690;9.022;2023-09-12T01:33:54;21.70;;;20.37;;
2622;SDS011;1321;48.690;9.022;2023-09-12T01:36:24;20.70;;;19.40;;
2622;SDS011;1321;48.690;9.022;2023-09-12T01:38:52;21.00;;;19.70;;
2622;SDS011;1321;48.690;9.022;2023-09-12T01:41:20;21.23;;;19.53;;
2622;SDS011;1321;48.690;9.022;2023-09-12T01:43:48;20.70;;;19.40;;
2622;SDS011;1321;48.690;9.022;2023-09-12T01:46:20;21.77;;;20.30;;
2622;SDS011;1321;48.690;9.022;2023-09-12T01:48:49;21.07;;;19.53;;
2622;SDS011;1321;48.690;9.022;2023-09-12T01:51:21;20.80;;;19.60;;
2622;SDS011;1321;48.690;9.022;2023-09-12T01:53:51;21.77;;;20.35;;
2622;SDS011;1321;48.690;9.022;2023-09-12T01:56:20;21.87;;;20.37;;
2622;SDS011;1321;48.690;9.022;2023-09-12T01:58:49;21.80;;;20.50;;
2622;SDS011;1321;48.690;9.022;2023-09-12T02:01:17;21.23;;;19.67;;
2622;SDS011;1321;48.690;9.022;2023-09-12T02:03:47;20.30;;;19.00;;
2622;SDS011;1321;48.690;9.022;2023-09-12T02:06:15;21.10;;;19.70;;
2622;SDS011;1321;48.690;9.022;2023-09-12T02:08:43;20.03;;;18.80;;
2622;SDS011;1321;48.690;9.022;2023-09-12T02:11:11;20.43;;;19.23;;
2622;SDS011;1321;48.690;9.022;2023-09-12T02:13:39;19.73;;;18.70;;
2622;SDS011;1321;48.690;9.022;2023-09-12T02:16:07;20.47;;;18.93;;
2622;SDS011;1321;48.690;9.022;2023-09-12T02:18:35;20.47;;;19.40;;
2622;SDS011;1321;48.690;9.022;2023-09-12T02:21:05;19.70;;;18.60;;
2622;SDS011;1321;48.690;9.022;2023-09-12T02:23:33;21.57;;;20.10;;
2622;SDS011;1321;48.690;9.022;2023-09-12T02:26:01;20.60;;;19.40;;
2622;SDS011;1321;48.690;9.022;2023-09-12T02:28:29;21.60;;;20.20;;
2622;SDS011;1321;48.690;9.022;2023-09-12T02:30:57;20.37;;;19.20;;
2622;SDS011;1321;48.690;9.022;2023-09-12T02:33:25;22.33;;;20.70;;
2622;SDS011;1321;48.690;9.022;2023-09-12T02:35:53;20.23;;;19.00;;
2622;SDS011;1321;48.690;9.022;2023-09-12T02:38:23;20.40;;;19.10;;
2622;SDS011;1321;48.690;9.022;2023-09-12T02:40:51;20.03;;;18.80;;
2622;SDS011;1321;48.690;9.022;2023-09-12T02:43:19;20.87;;;19.13;;
2622;SDS011;1321;48.690;9.022;2023-09-12T02:45:47;21.87;;;20.10;;
2622;SDS011;1321;48.690;9.022;2023-09-12T02:48:15;20.90;;;19.50;;
2622;SDS011;1321;48.690;9.022;2023-09-12T02:50:44;20.77;;;19.57;;
2622;SDS011;1321;48.690;9.022;2023-09-12T02:53:12;20.77;;;19.37;;
2622;SDS011;1321;48.690;9.022;2023-09-12T02:55:42;20.77;;;19.40;;
2622;SDS011;1321;48.690;9.022;2023-09-12T02:58:10;21.33;;;19.93;;
2622;SDS011;1321;48.690;9.022;2023-09-12T03:00:38;23.17;;;20.60;;
2622;SDS011;1321;48.690;9.022;2023-09-12T03:03:07;20.73;;;19.43;;
2622;SDS011;1321;48.690;9.022;2023-09-12T03:05:36;20.73;;;19.43;;
2622;SDS011;1321;48.690;9.022;2023-09-12T03:08:04;22.10;;;20.57;;
2622;SDS011;1321;48.690;9.022;2023-09-12T03:10:32;22.20;;;20.80;;
2622;SDS011;1321;48.690;9.022;2023-09-12T03:13:02;22.10;;;20.63;;
2622;SDS011;1321;48.690;9.022;2023-09-12T03:15:35;21.13;;;20.03;;
2622;SDS011;1321;48.690;9.022;2023-09-12T03:18:04;21.33;;;20.13;;
2622;SDS011;1321;48.690;9.022;2023-09-12T03:20:37;21.30;;;19.90;;
2622;SDS011;1321;48.690;9.022;2023-09-12T03:23:05;22.80;;;20.93;;
2622;SDS011;1321;48.690;9.022;2023-09-12T03:25:35;22.07;;;20.90;;
2622;SDS011;1321;48.690;9.022;2023-09-12T03:28:05;22.60;;;20.83;;
2622;SDS011;1321;48.690;9.022;2023-09-12T03:30:34;21.80;;;20.37;;
2622;SDS011;1321;48.690;9.022;2023-09-12T03:33:04;20.97;;;19.67;;
2622;SDS011;1321;48.690;9.022;2023-09-12T03:35:33;21.77;;;20.13;;
2622;SDS011;1321;48.690;9.022;2023-09-12T03:38:01;21.03;;;19.77;;
2622;SDS011;1321;48.690;9.022;2023-09-12T03:40:29;22.83;;;21.43;;
2622;SDS011;1321;48.690;9.022;2023-09-12T03:42:58;21.27;;;20.07;;
2622;SDS011;1321;48.690;9.022;2023-09-12T03:45:27;20.33;;;19.23;;
2622;SDS011;1321;48.690;9.022;2023-09-12T03:47:55;20.37;;;19.20;;
2622;SDS011;1321;48.690;9.022;2023-09-12T03:50:23;21.77;;;20.37;;
2622;SDS011;1321;48.690;9.022;2023-09-12T03:52:51;21.50;;;20.13;;
2622;SDS011;1321;48.690;9.022;2023-09-12T03:55:19;21.60;;;20.40;;
2622;SDS011;1321;48.690;9.022;2023-09-12T03:57:47;21.53;;;20.30;;
2622;SDS011;1321;48.690;9.022;2023-09-12T04:00:15;23.30;;;21.60;;
2622;SDS011;1321;48.690;9.022;2023-09-12T04:02:45;21.53;;;20.23;;
2622;SDS011;1321;48.690;9.022;2023-09-12T04:05:13;22.60;;;21.30;;
2622;SDS011;1321;48.690;9.022;2023-09-12T04:07:41;22.33;;;20.87;;
2622;SDS011;1321;48.690;9.022;2023-09-12T04:10:09;22.47;;;21.07;;
2622;SDS011;1321;48.690;9.022;2023-09-12T04:12:38;22.30;;;20.73;;
2622;SDS011;1321;48.690;9.022;2023-09-12T04:15:06;21.00;;;20.00;;
2622;SDS011;1321;48.690;9.022;2023-09-12T04:17:35;22.17;;;20.77;;
2622;SDS011;1321;48.690;9.022;2023-09-12T04:20:05;22.57;;;21.27;;
2622;SDS011;1321;48.690;9.022;2023-09-12T04:22:34;22.17;;;20.80;;
2622;SDS011;1321;48.690;9.022;2023-09-12T04:25:02;20.67;;;19.47;;
2622;SDS011;1321;48.690;9.022;2023-09-12T04:27:31;22.80;;;21.20;;
2622;SDS011;1321;48.690;9.022;2023-09-12T04:30:00;23.37;;;21.30;;
2622;SDS011;1321;48.690;9.022;2023-09-12T04:32:30;23.10;;;21.50;;
2622;SDS011;1321;48.690;9.022;2023-09-12T04:34:59;22.23;;;21.03;;
2622;SDS011;1321;48.690;9.022;2023-09-12T04:37:28;21.03;;;20.03;;
2622;SDS011;1321;48.690;9.022;2023-09-12T04:39:56;21.83;;;20.43;;
2622;SDS011;1321;48.690;9.022;2023-09-12T04:42:26;22.40;;;21.20;;
2622;SDS011;1321;48.690;9.022;2023-09-12T04:44:54;25.03;;;23.37;;
2622;SDS011;1321;48.690;9.022;2023-09-12T04:47:23;23.77;;;22.33;;
2622;SDS011;1321;48.690;9.022;2023-09-12T04:49:51;25.90;;;24.23;;
2622;SDS011;1321;48.690;9.022;2023-09-12T04:52:19;23.00;;;21.60;;
2622;SDS011;1321;48.690;9.022;2023-09-12T04:54:49;23.70;;;22.20;;
2622;SDS011;1321;48.690;9.022;2023-09-12T04:57:17;23.20;;;21.77;;
2622;SDS011;1321;48.690;9.022;2023-09-12T04:59:45;23.90;;;22.40;;
2622;SDS011;1321;48.690;9.022;2023-09-12T05:02:14;23.83;;;22.53;;
2622;SDS011;1321;48.690;9.022;2023-09-12T05:04:42;23.70;;;22.13;;
2622;SDS011;1321;48.690;9.022;2023-09-12T05:07:10;23.48;;;22.00;;
2622;SDS011;1321;48.690;9.022;2023-09-12T05:09:38;23.20;;;21.77;;
2622;SDS011;1321;48.690;9.022;2023-09-12T05:12:09;22.23;;;21.13;;
2622;SDS011;1321;48.690;9.022;2023-09-12T05:14:37;23.10;;;21.80;;
2622;SDS011;1321;48.690;9.022;2023-09-12T05:17:05;22.90;;;21.43;;
2622;SDS011;1321;48.690;9.022;2023-09-12T05:19:33;23.10;;;21.77;;
2622;SDS011;1321;48.690;9.022;2023-09-12T05:22:02;23.03;;;21.73;;
2622;SDS011;1321;48.690;9.022;2023-09-12T05:24:30;24.40;;;22.70;;
2622;SDS011;1321;48.690;9.022;2023-09-12T05:26:58;23.07;;;21.50;;
2622;SDS011;1321;48.690;9.022;2023-09-12T05:29:28;24.93;;;23.43;;
2622;SDS011;1321;48.690;9.022;2023-09-12T05:31:56;24.03;;;22.63;;
2622;SDS011;1321;48.690;9.022;2023-09-12T05:34:24;23.53;;;21.80;;
2622;SDS011;1321;48.690;9.022;2023-09-12T05:36:52;23.60;;;22.10;;
2622;SDS011;1321;48.690;9.022;2023-09-12T05:39:20;23.63;;;22.23;;
2622;SDS011;1321;48.690;9.022;2023-09-12T05:41:48;23.70;;;21.97;;
2622;SDS011;1321;48.690;9.022;2023-09-12T05:44:16;22.63;;;21.40;;
2622;SDS011;1321;48.690;9.022;2023-09-12T05:46:47;22.83;;;21.50;;
2622;SDS011;1321;48.690;9.022;2023-09-12T05:49:15;23.30;;;22.00;;
2622;SDS011;1321;48.690;9.022;2023-09-12T05:51:43;24.30;;;22.67;;
2622;SDS011;1321;48.690;9.022;2023-09-12T05:54:11;23.93;;;22.63;;
2622;SDS011;1321;48.690;9.022;2023-09-12T05:56:41;23.30;;;21.77;;
2622;SDS011;1321;48.690;9.022;2023-09-12T05:59:09;24.70;;;22.90;;
2622;SDS011;1321;48.690;9.022;2023-09-12T06:01:37;24.73;;;23.03;;
2622;SDS011;1321;48.690;9.022;2023-09-12T06:04:07;24.50;;;22.90;;
2622;SDS011;1321;48.690;9.022;2023-09-12T06:06:36;23.93;;;22.53;;
2622;SDS011;1321;48.690;9.022;2023-09-12T06:09:05;25.07;;;23.33;;
2622;SDS011;1321;48.690;9.022;2023-09-12T06:11:35;25.67;;;23.30;;
2622;SDS011;1321;48.690;9.022;2023-09-12T06:14:03;25.63;;;23.47;;
2622;SDS011;1321;48.690;9.022;2023-09-12T06:16:31;24.07;;;22.43;;
2622;SDS011;1321;48.690;9.022;2023-09-12T06:18:59;24.73;;;23.30;;
2622;SDS011;1321;48.690;9.022;2023-09-12T06:21:29;25.77;;;23.83;;
2622;SDS011;1321;48.690;9.022;2023-09-12T06:26:41;26.60;;;24.53;;
2622;SDS011;1321;48.690;9.022;2023-09-12T06:29:09;24.30;;;22.80;;
2622;SDS011;1321;48.690;9.022;2023-09-12T06:31:37;25.00;;;23.30;;
2622;SDS011;1321;48.690;9.022;2023-09-12T06:34:08;25.00;;;23.27;;
2622;SDS011;1321;48.690;9.022;2023-09-12T06:36:38;24.63;;;23.07;;
2622;SDS011;1321;48.690;9.022;2023-09-12T06:39:08;26.03;;;23.97;;
2622;SDS011;1321;48.690;9.022;2023-09-12T06:41:36;24.23;;;22.73;;
2622;SDS011;1321;48.690;9.022;2023-09-12T06:44:04;23.67;;;22.27;;
2622;SDS011;1321;48.690;9.022;2023-09-12T06:46:33;24.27;;;22.60;;
2622;SDS011;1321;48.690;9.022;2023-09-12T06:49:03;33.97;;;30.63;;
2622;SDS011;1321;48.690;9.022;2023-09-12T06:51:31;32.97;;;29.73;;
2622;SDS011;1321;48.690;9.022;2023-09-12T06:54:06;26.93;;;24.67;;
2622;SDS011;1321;48.690;9.022;2023-09-12T06:56:34;25.47;;;23.67;;
2622;SDS011;1321;48.690;9.022;2023-09-12T06:59:04;25.10;;;23.10;;
2622;SDS011;1321;48.690;9.022;2023-09-12T07:01:32;24.43;;;22.60;;
2622;SDS011;1321;48.690;9.022;2023-09-12T07:04:01;24.53;;;23.03;;
2622;SDS011;1321;48.690;9.022;2023-09-12T07:06:29;25.63;;;23.10;;
2622;SDS011;1321;48.690;9.022;2023-09-12T07:08:59;24.20;;;22.80;;
2622;SDS011;1321;48.690;9.022;2023-09-12T07:11:30;23.67;;;22.33;;
2622;SDS011;1321;48.690;9.022;2023-09-12T07:13:58;25.80;;;23.90;;
2622;SDS011;1321;48.690;9.022;2023-09-12T07:16:26;25.70;;;23.73;;
2622;SDS011;1321;48.690;9.022;2023-09-12T07:18:54;23.37;;;22.07;;
2622;SDS011;1321;48.690;9.022;2023-09-12T07:21:22;23.97;;;22.57;;
2622;SDS011;1321;48.690;9.022;2023-09-12T07:23:50;24.13;;;22.83;;
2622;SDS011;1321;48.690;9.022;2023-09-12T07:26:18;24.33;;;22.43;;
2622;SDS011;1321;48.690;9.022;2023-09-12T07:28:48;24.50;;;22.87;;
2622;SDS011;1321;48.690;9.022;2023-09-12T07:31:16;23.87;;;22.53;;
2622;SDS011;1321;48.690;9.022;2023-09-12T07:33:44;25.03;;;23.20;;
2622;SDS011;1321;48.690;9.022;2023-09-12T07:36:13;25.07;;;23.67;;
2622;SDS011;1321;48.690;9.022;2023-09-12T07:38:41;24.03;;;22.43;;
2622;SDS011;1321;48.690;9.022;2023-09-12T07:41:11;23.63;;;22.20;;
2622;SDS011;1321;48.690;9.022;2023-09-12T07:43:39;24.37;;;22.67;;
2622;SDS011;1321;48.690;9.022;2023-09-12T07:46:09;24.40;;;22.80;;
2622;SDS011;1321;48.690;9.022;2023-09-12T07:48:38;24.13;;;22.40;;
2622;SDS011;1321;48.690;9.022;2023-09-12T07:51:13;23.37;;;22.27;;
2622;SDS011;1321;48.690;9.022;2023-09-12T07:53:43;24.87;;;23.47;;
2622;SDS011;1321;48.690;9.022;2023-09-12T07:56:12;23.90;;;22.60;;
2622;SDS011;1321;48.690;9.022;2023-09-12T07:58:40;24.37;;;23.17;;
2622;SDS011;1321;48.690;9.022;2023-09-12T08:01:09;23.00;;;21.70;;
2622;SDS011;1321;48.690;9.022;2023-09-12T08:03:39;23.93;;;22.60;;
2622;SDS011;1321;48.690;9.022;2023-09-12T08:06:10;22.90;;;21.70;;
2622;SDS011;1321;48.690;9.022;2023-09-12T08:08:38;23.70;;;22.50;;
2622;SDS011;1321;48.690;9.022;2023-09-12T08:11:09;24.20;;;22.90;;
2622;SDS011;1321;48.690;9.022;2023-09-12T08:13:37;23.60;;;22.40;;
2622;SDS011;1321;48.690;9.022;2023-09-12T08:16:05;23.03;;;21.80;;
2622;SDS011;1321;48.690;9.022;2023-09-12T08:18:35;23.50;;;22.20;;
2622;SDS011;1321;48.690;9.022;2023-09-12T08:21:03;24.20;;;22.80;;
2622;SDS011;1321;48.690;9.022;2023-09-12T08:23:31;23.63;;;22.43;;
2622;SDS011;1321;48.690;9.022;2023-09-12T08:25:59;23.67;;;22.27;;
2622;SDS011;1321;48.690;9.022;2023-09-12T08:28:27;23.53;;;22.30;;
2622;SDS011;1321;48.690;9.022;2023-09-12T08:30:56;24.17;;;22.83;;
2622;SDS011;1321;48.690;9.022;2023-09-12T08:33:24;23.20;;;22.00;;
2622;SDS011;1321;48.690;9.022;2023-09-12T08:35:54;23.63;;;22.40;;
2622;SDS011;1321;48.690;9.022;2023-09-12T08:38:22;22.73;;;21.53;;
2622;SDS011;1321;48.690;9.022;2023-09-12T08:40:51;23.63;;;22.40;;
2622;SDS011;1321;48.690;9.022;2023-09-12T08:43:20;23.30;;;22.10;;
2622;SDS011;1321;48.690;9.022;2023-09-12T08:45:48;22.50;;;21.10;;
2622;SDS011;1321;48.690;9.022;2023-09-12T08:48:18;21.40;;;20.40;;
2622;SDS011;1321;48.690;9.022;2023-09-12T08:50:50;24.07;;;22.67;;
2622;SDS011;1321;48.690;9.022;2023-09-12T08:53:21;24.30;;;22.93;;
2622;SDS011;1321;48.690;9.022;2023-09-12T08:55:50;23.83;;;22.33;;
2622;SDS011;1321;48.690;9.022;2023-09-12T08:58:19;24.00;;;22.57;;
2622;SDS011;1321;48.690;9.022;2023-09-12T09:00:49;23.38;;;22.08;;
2622;SDS011;1321;48.690;9.022;2023-09-12T09:03:18;23.53;;;22.37;;
2622;SDS011;1321;48.690;9.022;2023-09-12T09:05:48;23.40;;;22.20;;
2622;SDS011;1321;48.690;9.022;2023-09-12T09:08:19;23.03;;;21.93;;
2622;SDS011;1321;48.690;9.022;2023-09-12T09:10:54;22.67;;;21.40;;
2622;SDS011;1321;48.690;9.022;2023-09-12T09:13:23;23.80;;;22.40;;
2622;SDS011;1321;48.690;9.022;2023-09-12T09:18:51;22.83;;;21.60;;
2622;SDS011;1321;48.690;9.022;2023-09-12T09:21:21;21.63;;;20.60;;
2622;SDS011;1321;48.690;9.022;2023-09-12T09:23:52;22.63;;;21.43;;
2622;SDS011;1321;48.690;9.022;2023-09-12T09:26:21;22.60;;;21.40;;
2622;SDS011;1321;48.690;9.022;2023-09-12T09:31:41;23.03;;;21.73;;
2622;SDS011;1321;48.690;9.022;2023-09-12T09:34:10;22.83;;;21.60;;
2622;SDS011;1321;48.690;9.022;2023-09-12T09:36:43;21.83;;;20.63;;
2622;SDS011;1321;48.690;9.022;2023-09-12T09:39:13;22.27;;;20.80;;
2622;SDS011;1321;48.690;9.022;2023-09-12T09:41:45;22.67;;;21.60;;
2622;SDS011;1321;48.690;9.022;2023-09-12T09:44:15;22.67;;;21.57;;
2622;SDS011;1321;48.690;9.022;2023-09-12T09:46:43;21.93;;;20.83;;
2622;SDS011;1321;48.690;9.022;2023-09-12T09:49:14;22.47;;;21.27;;
2622;SDS011;1321;48.690;9.022;2023-09-12T09:51:42;22.70;;;21.40;;
2622;SDS011;1321;48.690;9.022;2023-09-12T09:54:11;22.00;;;20.90;;
2622;SDS011;1321;48.690;9.022;2023-09-12T09:56:47;22.17;;;21.10;;
2622;SDS011;1321;48.690;9.022;2023-09-12T09:59:17;22.40;;;21.20;;
2622;SDS011;1321;48.690;9.022;2023-09-12T10:01:47;22.13;;;21.03;;
2622;SDS011;1321;48.690;9.022;2023-09-12T10:04:17;23.30;;;22.20;;
2622;SDS011;1321;48.690;9.022;2023-09-12T10:06:46;21.77;;;20.73;;
2622;SDS011;1321;48.690;9.022;2023-09-12T10:09:16;22.00;;;20.80;;
2622;SDS011;1321;48.690;9.022;2023-09-12T10:11:46;22.50;;;21.40;;
2622;SDS011;1321;48.690;9.022;2023-09-12T10:14:15;23.37;;;21.90;;
2622;SDS011;1321;48.690;9.022;2023-09-12T10:16:47;22.77;;;21.67;;
2622;SDS011;1321;48.690;9.022;2023-09-12T10:19:18;23.60;;;22.13;;
2622;SDS011;1321;48.690;9.022;2023-09-12T10:21:52;23.07;;;21.67;;
2622;SDS011;1321;48.690;9.022;2023-09-12T10:24:28;23.50;;;22.13;;
2622;SDS011;1321;48.690;9.022;2023-09-12T10:26:58;23.87;;;22.33;;
2622;SDS011;1321;48.690;9.022;2023-09-12T10:29:27;27.53;;;25.47;;
2622;SDS011;1321;48.690;9.022;2023-09-12T10:31:56;25.43;;;23.80;;
2622;SDS011;1321;48.690;9.022;2023-09-12T10:34:24;23.77;;;22.43;;
2622;SDS011;1321;48.690;9.022;2023-09-12T10:36:53;23.37;;;21.87;;
2622;SDS011;1321;48.690;9.022;2023-09-12T10:39:25;26.27;;;24.77;;
2622;SDS011;1321;48.690;9.022;2023-09-12T10:41:57;23.23;;;22.03;;
2622;SDS011;1321;48.690;9.022;2023-09-12T10:44:26;26.73;;;25.13;;
2622;SDS011;1321;48.690;9.022;2023-09-12T10:46:55;25.53;;;23.83;;
2622;SDS011;1321;48.690;9.022;2023-09-12T10:49:26;23.30;;;22.00;;
2622;SDS011;1321;48.690;9.022;2023-09-12T10:51:55;22.40;;;20.97;;
2622;SDS011;1321;48.690;9.022;2023-09-12T10:54:25;25.80;;;24.40;;
2622;SDS011;1321;48.690;9.022;2023-09-12T10:57:04;24.47;;;22.87;;
2622;SDS011;1321;48.690;9.022;2023-09-12T10:59:34;20.40;;;19.40;;
2622;SDS011;1321;48.690;9.022;2023-09-12T11:04:56;20.33;;;19.40;;
2622;SDS011;1321;48.690;9.022;2023-09-12T11:07:31;19.97;;;19.07;;
2622;SDS011;1321;48.690;9.022;2023-09-12T11:14:16;19.67;;;18.70;;
2622;SDS011;1321;48.690;9.022;2023-09-12T11:19:50;20.10;;;19.30;;
2622;SDS011;1321;48.690;9.022;2023-09-12T11:29:13;20.70;;;19.60;;
2622;SDS011;1321;48.690;9.022;2023-09-12T11:39:22;20.77;;;19.67;;
2622;SDS011;1321;48.690;9.022;2023-09-12T11:41:52;20.80;;;19.80;;
2622;SDS011;1321;48.690;9.022;2023-09-12T11:44:27;21.13;;;20.00;;
2622;SDS011;1321;48.690;9.022;2023-09-12T11:46:59;21.80;;;20.37;;
2622;SDS011;1321;48.690;9.022;2023-09-12T11:49:36;21.00;;;19.90;;
2622;SDS011;1321;48.690;9.022;2023-09-12T11:52:38;20.00;;;18.83;;
2622;SDS011;1321;48.690;9.022;2023-09-12T11:55:24;20.13;;;19.20;;
2622;SDS011;1321;48.690;9.022;2023-09-12T11:58:03;19.80;;;18.90;;
2622;SDS011;1321;48.690;9.022;2023-09-12T12:03:51;18.80;;;17.70;;
2622;SDS011;1321;48.690;9.022;2023-09-12T12:06:23;18.87;;;18.07;;
2622;SDS011;1321;48.690;9.022;2023-09-12T12:08:53;19.67;;;18.40;;
2622;SDS011;1321;48.690;9.022;2023-09-12T12:11:22;19.27;;;18.43;;
2622;SDS011;1321;48.690;9.022;2023-09-12T12:13:55;19.13;;;18.33;;
2622;SDS011;1321;48.690;9.022;2023-09-12T12:16:25;19.90;;;18.80;;
2622;SDS011;1321;48.690;9.022;2023-09-12T12:18:53;18.60;;;17.80;;
2622;SDS011;1321;48.690;9.022;2023-09-12T12:28:08;19.63;;;18.63;;
2622;SDS011;1321;48.690;9.022;2023-09-12T12:30:39;18.63;;;17.83;;
2622;SDS011;1321;48.690;9.022;2023-09-12T12:40:37;19.40;;;18.43;;
2622;SDS011;1321;48.690;9.022;2023-09-12T12:43:18;18.63;;;17.77;;
2622;SDS011;1321;48.690;9.022;2023-09-12T12:46:10;19.37;;;18.47;;
2622;SDS011;1321;48.690;9.022;2023-09-12T12:48:42;18.50;;;17.60;;
2622;SDS011;1321;48.690;9.022;2023-09-12T12:51:13;19.47;;;18.47;;
2622;SDS011;1321;48.690;9.022;2023-09-12T12:53:43;20.30;;;19.30;;
2622;SDS011;1321;48.690;9.022;2023-09-12T12:56:20;20.03;;;19.03;;
2622;SDS011;1321;48.690;9.022;2023-09-12T12:58:51;19.23;;;18.20;;
2622;SDS011;1321;48.690;9.022;2023-09-12T13:01:21;18.83;;;17.73;;
2622;SDS011;1321;48.690;9.022;2023-09-12T13:03:50;19.13;;;18.13;;
2622;SDS011;1321;48.690;9.022;2023-09-12T13:06:21;18.90;;;17.87;;
2622;SDS011;1321;48.690;9.022;2023-09-12T13:08:50;18.10;;;17.30;;
2622;SDS011;1321;48.690;9.022;2023-09-12T13:11:19;18.70;;;17.90;;
2622;SDS011;1321;48.690;9.022;2023-09-12T13:13:47;19.00;;;18.10;;
2622;SDS011;1321;48.690;9.022;2023-09-12T13:16:18;21.20;;;19.90;;
2622;SDS011;1321;48.690;9.022;2023-09-12T13:18:46;20.23;;;18.80;;
2622;SDS011;1321;48.690;9.022;2023-09-12T13:21:15;20.60;;;19.60;;
2622;SDS011;1321;48.690;9.022;2023-09-12T13:23:43;20.70;;;19.60;;
2622;SDS011;1321;48.690;9.022;2023-09-12T13:26:11;20.63;;;19.43;;
2622;SDS011;1321;48.690;9.022;2023-09-12T13:28:39;20.00;;;19.00;;
2622;SDS011;1321;48.690;9.022;2023-09-12T13:31:08;20.30;;;19.20;;
2622;SDS011;1321;48.690;9.022;2023-09-12T13:33:37;21.20;;;19.80;;
2622;SDS011;1321;48.690;9.022;2023-09-12T13:36:06;21.80;;;20.60;;
2622;SDS011;1321;48.690;9.022;2023-09-12T13:38:35;20.63;;;19.43;;
2622;SDS011;1321;48.690;9.022;2023-09-12T13:41:03;20.30;;;19.30;;
2622;SDS011;1321;48.690;9.022;2023-09-12T13:43:32;21.23;;;20.03;;
2622;SDS011;1321;48.690;9.022;2023-09-12T13:46:08;21.70;;;20.40;;
2622;SDS011;1321;48.690;9.022;2023-09-12T13:48:40;20.83;;;19.10;;
2622;SDS011;1321;48.690;9.022;2023-09-12T13:51:09;19.70;;;18.80;;
2622;SDS011;1321;48.690;9.022;2023-09-12T13:53:39;20.30;;;19.10;;
2622;SDS011;1321;48.690;9.022;2023-09-12T13:56:08;21.70;;;20.50;;
2622;SDS011;1321;48.690;9.022;2023-09-12T13:58:38;20.60;;;19.30;;
2622;SDS011;1321;48.690;9.022;2023-09-12T14:01:12;20.80;;;19.60;;
2622;SDS011;1321;48.690;9.022;2023-09-12T14:03:59;20.37;;;19.37;;
2622;SDS011;1321;48.690;9.022;2023-09-12T14:06:29;20.37;;;19.30;;
2622;SDS011;1321;48.690;9.022;2023-09-12T14:09:02;19.80;;;18.73;;
2622;SDS011;1321;48.690;9.022;2023-09-12T14:11:31;20.83;;;19.43;;
2622;SDS011;1321;48.690;9.022;2023-09-12T14:14:02;19.73;;;18.60;;
2622;SDS011;1321;48.690;9.022;2023-09-12T14:16:34;20.60;;;19.50;;
2622;SDS011;1321;48.690;9.022;2023-09-12T14:19:04;21.20;;;19.87;;
2622;SDS011;1321;48.690;9.022;2023-09-12T14:21:33;21.03;;;19.53;;
2622;SDS011;1321;48.690;9.022;2023-09-12T14:24:03;19.37;;;18.37;;
2622;SDS011;1321;48.690;9.022;2023-09-12T14:26:34;21.30;;;20.13;;
2622;SDS011;1321;48.690;9.022;2023-09-12T14:29:04;20.25;;;19.15;;
2622;SDS011;1321;48.690;9.022;2023-09-12T14:31:41;20.40;;;19.33;;
2622;SDS011;1321;48.690;9.022;2023-09-12T14:34:27;20.30;;;19.20;;
2622;SDS011;1321;48.690;9.022;2023-09-12T14:36:58;20.47;;;19.47;;
2622;SDS011;1321;48.690;9.022;2023-09-12T14:39:26;20.67;;;19.57;;
2622;SDS011;1321;48.690;9.022;2023-09-12T14:42:04;20.00;;;19.03;;
2622;SDS011;1321;48.690;9.022;2023-09-12T14:44:41;20.17;;;19.03;;
2622;SDS011;1321;48.690;9.022;2023-09-12T14:47:10;20.93;;;19.60;;
2622;SDS011;1321;48.690;9.022;2023-09-12T14:49:42;20.80;;;19.63;;
2622;SDS011;1321;48.690;9.022;2023-09-12T14:52:17;20.30;;;19.13;;
2622;SDS011;1321;48.690;9.022;2023-09-12T14:54:53;19.80;;;18.77;;
2622;SDS011;1321;48.690;9.022;2023-09-12T14:57:29;20.43;;;19.37;;
2622;SDS011;1321;48.690;9.022;2023-09-12T15:00:05;21.10;;;19.67;;
2622;SDS011;1321;48.690;9.022;2023-09-12T15:02:49;21.13;;;19.93;;
2622;SDS011;1321;48.690;9.022;2023-09-12T15:05:19;20.17;;;19.10;;
2622;SDS011;1321;48.690;9.022;2023-09-12T15:07:50;20.60;;;19.30;;
2622;SDS011;1321;48.690;9.022;2023-09-12T15:10:18;20.13;;;19.17;;
2622;SDS011;1321;48.690;9.022;2023-09-12T15:12:47;19.33;;;18.40;;
2622;SDS011;1321;48.690;9.022;2023-09-12T15:15:15;19.93;;;19.00;;
2622;SDS011;1321;48.690;9.022;2023-09-12T15:17:46;20.13;;;19.20;;
2622;SDS011;1321;48.690;9.022;2023-09-12T15:20:14;19.63;;;18.53;;
2622;SDS011;1321;48.690;9.022;2023-09-12T15:22:44;20.80;;;19.40;;
2622;SDS011;1321;48.690;9.022;2023-09-12T15:25:15;20.13;;;19.03;;
2622;SDS011;1321;48.690;9.022;2023-09-12T15:27:46;20.47;;;19.47;;
2622;SDS011;1321;48.690;9.022;2023-09-12T15:30:14;20.20;;;19.13;;
2622;SDS011;1321;48.690;9.022;2023-09-12T15:32:42;19.83;;;18.83;;
2622;SDS011;1321;48.690;9.022;2023-09-12T15:35:11;19.90;;;18.80;;
2622;SDS011;1321;48.690;9.022;2023-09-12T15:37:39;20.83;;;19.73;;
2622;SDS011;1321;48.690;9.022;2023-09-12T15:40:10;20.30;;;18.93;;
2622;SDS011;1321;48.690;9.022;2023-09-12T15:42:39;21.73;;;20.53;;
2622;SDS011;1321;48.690;9.022;2023-09-12T15:45:08;21.50;;;19.90;;
2622;SDS011;1321;48.690;9.022;2023-09-12T15:47:38;21.63;;;20.20;;
2622;SDS011;1321;48.690;9.022;2023-09-12T15:50:06;24.23;;;22.33;;
2622;SDS011;1321;48.690;9.022;2023-09-12T15:52:35;24.53;;;22.37;;
2622;SDS011;1321;48.690;9.022;2023-09-12T15:55:04;25.17;;;22.97;;
2622;SDS011;1321;48.690;9.022;2023-09-12T15:57:34;23.10;;;21.50;;